sensor_id;sensor_type;location;lat;lon;timestamp;P1;durP1;ratioP1;P2;durP2;ratioP2
47966;SDS011;33733;52.456;13.620;2023-05-15T00:01:25;4.07;;;1.42;;
47966;SDS011;33733;52.456;13.620;2023-05-15T00:03:51;6.45;;;1.20;;
47966;SDS011;33733;52.456;13.620;2023-05-15T00:06:20;5.75;;;2.22;;
47966;SDS011;33733;52.456;13.620;2023-05-15T00:08:46;6.93;;;2.45;;
47966;SDS011;33733;52.456;13.620;2023-05-15T00:11:13;4.22;;;1.50;;
47966;SDS011;33733;52.456;13.620;2023-05-15T00:13:39;5.80;;;1.88;;
47966;SDS011;33733;52.456;13.620;2023-05-15T00:16:06;3.97;;;1.15;;
47966;SDS011;33733;52.456;13.620;2023-05-15T00:18:33;4.90;;;1.55;;
47966;SDS011;33733;52.456;13.620;2023-05-15T00:21:00;4.38;;;1.40;;
47966;SDS011;33733;52.456;13.620;2023-05-15T00:23:27;4.10;;;1.52;;
47966;SDS011;33733;52.456;13.620;2023-05-15T00:25:53;4.63;;;1.63;;
47966;SDS011;33733;52.456;13.620;2023-05-15T00:28:20;5.35;;;1.67;;
47966;SDS011;33733;52.456;13.620;2023-05-15T00:30:47;5.50;;;1.75;;
47966;SDS011;33733;52.456;13.620;2023-05-15T00:33:13;5.40;;;1.70;;
47966;SDS011;33733;52.456;13.620;2023-05-15T00:35:41;4.90;;;1.90;;
47966;SDS011;33733;52.456;13.620;2023-05-15T00:38:08;5.38;;;1.90;;
47966;SDS011;33733;52.456;13.620;2023-05-15T00:40:35;6.55;;;2.58;;
47966;SDS011;33733;52.456;13.620;2023-05-15T00:43:03;6.40;;;2.40;;
47966;SDS011;33733;52.456;13.620;2023-05-15T00:45:31;4.82;;;1.92;;
47966;SDS011;33733;52.456;13.620;2023-05-15T00:47:59;5.90;;;2.40;;
47966;SDS011;33733;52.456;13.620;2023-05-15T00:50:26;4.45;;;1.67;;
47966;SDS011;33733;52.456;13.620;2023-05-15T00:52:53;4.97;;;1.92;;
47966;SDS011;33733;52.456;13.620;2023-05-15T00:55:20;5.32;;;1.98;;
47966;SDS011;33733;52.456;13.620;2023-05-15T00:57:47;5.45;;;2.58;;
47966;SDS011;33733;52.456;13.620;2023-05-15T01:00:14;5.03;;;1.90;;
47966;SDS011;33733;52.456;13.620;2023-05-15T01:02:43;5.68;;;2.30;;
47966;SDS011;33733;52.456;13.620;2023-05-15T01:05:11;5.25;;;1.67;;
47966;SDS011;33733;52.456;13.620;2023-05-15T01:07:41;4.30;;;1.33;;
47966;SDS011;33733;52.456;13.620;2023-05-15T01:10:13;4.68;;;1.73;;
47966;SDS011;33733;52.456;13.620;2023-05-15T01:12:41;4.63;;;1.88;;
47966;SDS011;33733;52.456;13.620;2023-05-15T01:15:09;5.28;;;2.60;;
47966;SDS011;33733;52.456;13.620;2023-05-15T01:17:36;4.65;;;1.73;;
47966;SDS011;33733;52.456;13.620;2023-05-15T01:20:03;3.47;;;1.38;;
47966;SDS011;33733;52.456;13.620;2023-05-15T01:28:11;4.43;;;1.35;;
47966;SDS011;33733;52.456;13.620;2023-05-15T01:30:40;7.47;;;1.90;;
47966;SDS011;33733;52.456;13.620;2023-05-15T01:33:20;5.15;;;1.92;;
47966;SDS011;33733;52.456;13.620;2023-05-15T01:35:49;5.15;;;1.70;;
47966;SDS011;33733;52.456;13.620;2023-05-15T01:38:38;5.32;;;1.88;;
47966;SDS011;33733;52.456;13.620;2023-05-15T01:41:40;6.90;;;2.97;;
47966;SDS011;33733;52.456;13.620;2023-05-15T01:44:14;4.40;;;1.63;;
47966;SDS011;33733;52.456;13.620;2023-05-15T01:46:45;4.55;;;1.83;;
47966;SDS011;33733;52.456;13.620;2023-05-15T01:49:16;5.30;;;1.67;;
47966;SDS011;33733;52.456;13.620;2023-05-15T01:51:46;3.75;;;1.70;;
47966;SDS011;33733;52.456;13.620;2023-05-15T01:54:14;4.18;;;1.58;;
47966;SDS011;33733;52.456;13.620;2023-05-15T01:56:41;6.40;;;2.15;;
47966;SDS011;33733;52.456;13.620;2023-05-15T01:59:13;5.00;;;1.70;;
47966;SDS011;33733;52.456;13.620;2023-05-15T02:01:40;5.78;;;1.80;;
47966;SDS011;33733;52.456;13.620;2023-05-15T02:04:08;6.85;;;1.75;;
47966;SDS011;33733;52.456;13.620;2023-05-15T02:06:35;4.93;;;2.25;;
47966;SDS011;33733;52.456;13.620;2023-05-15T02:09:02;4.68;;;2.00;;
47966;SDS011;33733;52.456;13.620;2023-05-15T02:11:29;6.55;;;2.05;;
47966;SDS011;33733;52.456;13.620;2023-05-15T02:13:56;6.80;;;1.85;;
47966;SDS011;33733;52.456;13.620;2023-05-15T02:16:23;4.93;;;2.00;;
47966;SDS011;33733;52.456;13.620;2023-05-15T02:18:50;5.45;;;1.88;;
47966;SDS011;33733;52.456;13.620;2023-05-15T02:21:18;4.63;;;1.75;;
47966;SDS011;33733;52.456;13.620;2023-05-15T02:23:45;4.57;;;1.67;;
47966;SDS011;33733;52.456;13.620;2023-05-15T02:28:50;3.97;;;1.27;;
47966;SDS011;33733;52.456;13.620;2023-05-15T02:31:34;5.40;;;2.38;;
47966;SDS011;33733;52.456;13.620;2023-05-15T02:36:43;4.50;;;1.60;;
47966;SDS011;33733;52.456;13.620;2023-05-15T02:39:14;11.40;;;4.45;;
47966;SDS011;33733;52.456;13.620;2023-05-15T02:41:42;6.82;;;2.15;;
47966;SDS011;33733;52.456;13.620;2023-05-15T02:44:10;4.45;;;1.75;;
47966;SDS011;33733;52.456;13.620;2023-05-15T02:46:37;4.35;;;1.65;;
47966;SDS011;33733;52.456;13.620;2023-05-15T02:49:04;4.50;;;2.15;;
47966;SDS011;33733;52.456;13.620;2023-05-15T02:51:31;5.28;;;2.17;;
47966;SDS011;33733;52.456;13.620;2023-05-15T02:53:59;5.70;;;1.80;;
47966;SDS011;33733;52.456;13.620;2023-05-15T02:56:26;4.85;;;1.75;;
47966;SDS011;33733;52.456;13.620;2023-05-15T02:58:53;7.68;;;1.73;;
47966;SDS011;33733;52.456;13.620;2023-05-15T03:01:19;6.53;;;2.47;;
47966;SDS011;33733;52.456;13.620;2023-05-15T03:03:46;6.47;;;2.30;;
47966;SDS011;33733;52.456;13.620;2023-05-15T03:06:13;4.47;;;1.70;;
47966;SDS011;33733;52.456;13.620;2023-05-15T03:08:40;4.45;;;1.52;;
47966;SDS011;33733;52.456;13.620;2023-05-15T03:11:07;4.70;;;1.60;;
47966;SDS011;33733;52.456;13.620;2023-05-15T03:13:33;4.22;;;1.48;;
47966;SDS011;33733;52.456;13.620;2023-05-15T03:16:00;5.10;;;2.17;;
47966;SDS011;33733;52.456;13.620;2023-05-15T03:18:26;4.70;;;1.95;;
47966;SDS011;33733;52.456;13.620;2023-05-15T03:20:53;4.30;;;1.30;;
47966;SDS011;33733;52.456;13.620;2023-05-15T03:23:20;5.90;;;1.70;;
47966;SDS011;33733;52.456;13.620;2023-05-15T03:25:46;4.82;;;1.98;;
47966;SDS011;33733;52.456;13.620;2023-05-15T03:28:13;4.72;;;1.50;;
47966;SDS011;33733;52.456;13.620;2023-05-15T03:30:42;4.45;;;1.20;;
47966;SDS011;33733;52.456;13.620;2023-05-15T03:33:09;4.53;;;1.60;;
47966;SDS011;33733;52.456;13.620;2023-05-15T03:35:36;4.32;;;1.70;;
47966;SDS011;33733;52.456;13.620;2023-05-15T03:38:02;5.40;;;1.63;;
47966;SDS011;33733;52.456;13.620;2023-05-15T03:40:29;4.97;;;2.00;;
47966;SDS011;33733;52.456;13.620;2023-05-15T03:42:56;5.50;;;1.95;;
47966;SDS011;33733;52.456;13.620;2023-05-15T03:45:23;4.95;;;2.00;;
47966;SDS011;33733;52.456;13.620;2023-05-15T03:47:50;4.80;;;1.70;;
47966;SDS011;33733;52.456;13.620;2023-05-15T03:50:17;4.40;;;2.13;;
47966;SDS011;33733;52.456;13.620;2023-05-15T03:52:43;6.70;;;2.00;;
47966;SDS011;33733;52.456;13.620;2023-05-15T03:55:10;8.30;;;2.17;;
47966;SDS011;33733;52.456;13.620;2023-05-15T03:57:38;5.18;;;2.08;;
47966;SDS011;33733;52.456;13.620;2023-05-15T04:00:06;4.22;;;1.52;;
47966;SDS011;33733;52.456;13.620;2023-05-15T04:02:39;4.57;;;2.08;;
47966;SDS011;33733;52.456;13.620;2023-05-15T04:05:06;4.28;;;1.75;;
47966;SDS011;33733;52.456;13.620;2023-05-15T04:07:34;5.28;;;2.05;;
47966;SDS011;33733;52.456;13.620;2023-05-15T04:10:01;5.57;;;2.28;;
47966;SDS011;33733;52.456;13.620;2023-05-15T04:12:32;5.32;;;1.52;;
47966;SDS011;33733;52.456;13.620;2023-05-15T04:17:47;5.20;;;1.98;;
47966;SDS011;33733;52.456;13.620;2023-05-15T04:20:17;5.38;;;2.40;;
47966;SDS011;33733;52.456;13.620;2023-05-15T04:22:46;5.53;;;2.50;;
47966;SDS011;33733;52.456;13.620;2023-05-15T04:25:13;7.72;;;3.35;;
47966;SDS011;33733;52.456;13.620;2023-05-15T04:27:40;9.05;;;4.05;;
47966;SDS011;33733;52.456;13.620;2023-05-15T04:30:08;5.80;;;2.47;;
47966;SDS011;33733;52.456;13.620;2023-05-15T04:32:35;6.80;;;2.50;;
47966;SDS011;33733;52.456;13.620;2023-05-15T04:35:03;5.07;;;2.10;;
47966;SDS011;33733;52.456;13.620;2023-05-15T04:37:38;4.45;;;1.88;;
47966;SDS011;33733;52.456;13.620;2023-05-15T04:40:06;5.43;;;1.77;;
47966;SDS011;33733;52.456;13.620;2023-05-15T04:42:35;5.45;;;2.28;;
47966;SDS011;33733;52.456;13.620;2023-05-15T04:45:04;5.50;;;2.65;;
47966;SDS011;33733;52.456;13.620;2023-05-15T04:47:32;4.25;;;1.65;;
47966;SDS011;33733;52.456;13.620;2023-05-15T04:49:59;4.55;;;1.50;;
47966;SDS011;33733;52.456;13.620;2023-05-15T04:52:25;6.35;;;2.35;;
47966;SDS011;33733;52.456;13.620;2023-05-15T04:54:52;5.25;;;2.03;;
47966;SDS011;33733;52.456;13.620;2023-05-15T04:57:20;5.13;;;1.90;;
47966;SDS011;33733;52.456;13.620;2023-05-15T04:59:47;4.68;;;2.00;;
47966;SDS011;33733;52.456;13.620;2023-05-15T05:02:14;5.45;;;2.35;;
47966;SDS011;33733;52.456;13.620;2023-05-15T05:04:41;6.35;;;2.05;;
47966;SDS011;33733;52.456;13.620;2023-05-15T05:07:08;6.85;;;2.55;;
47966;SDS011;33733;52.456;13.620;2023-05-15T05:09:37;7.43;;;2.35;;
47966;SDS011;33733;52.456;13.620;2023-05-15T05:12:08;5.22;;;2.22;;
47966;SDS011;33733;52.456;13.620;2023-05-15T05:14:35;5.80;;;2.10;;
47966;SDS011;33733;52.456;13.620;2023-05-15T05:17:02;5.53;;;2.50;;
47966;SDS011;33733;52.456;13.620;2023-05-15T05:19:28;4.97;;;2.50;;
47966;SDS011;33733;52.456;13.620;2023-05-15T05:21:55;7.10;;;3.35;;
47966;SDS011;33733;52.456;13.620;2023-05-15T05:24:23;4.90;;;1.90;;
47966;SDS011;33733;52.456;13.620;2023-05-15T05:26:50;5.85;;;2.47;;
47966;SDS011;33733;52.456;13.620;2023-05-15T05:29:17;5.07;;;2.10;;
47966;SDS011;33733;52.456;13.620;2023-05-15T05:31:45;4.72;;;1.83;;
47966;SDS011;33733;52.456;13.620;2023-05-15T05:34:12;6.38;;;2.33;;
47966;SDS011;33733;52.456;13.620;2023-05-15T05:36:39;6.07;;;2.20;;
47966;SDS011;33733;52.456;13.620;2023-05-15T05:39:05;5.05;;;2.15;;
47966;SDS011;33733;52.456;13.620;2023-05-15T05:41:32;5.35;;;1.90;;
47966;SDS011;33733;52.456;13.620;2023-05-15T05:43:58;7.75;;;2.13;;
47966;SDS011;33733;52.456;13.620;2023-05-15T05:46:25;5.72;;;2.65;;
47966;SDS011;33733;52.456;13.620;2023-05-15T05:48:52;7.28;;;2.15;;
47966;SDS011;33733;52.456;13.620;2023-05-15T05:51:19;5.78;;;2.20;;
47966;SDS011;33733;52.456;13.620;2023-05-15T05:53:45;6.20;;;2.50;;
47966;SDS011;33733;52.456;13.620;2023-05-15T05:56:12;6.65;;;2.05;;
47966;SDS011;33733;52.456;13.620;2023-05-15T05:58:39;5.47;;;2.00;;
47966;SDS011;33733;52.456;13.620;2023-05-15T06:01:05;6.32;;;2.60;;
47966;SDS011;33733;52.456;13.620;2023-05-15T06:03:32;6.90;;;2.30;;
47966;SDS011;33733;52.456;13.620;2023-05-15T06:06:00;5.38;;;2.45;;
47966;SDS011;33733;52.456;13.620;2023-05-15T06:08:27;8.75;;;2.92;;
47966;SDS011;33733;52.456;13.620;2023-05-15T06:10:54;5.22;;;2.08;;
47966;SDS011;33733;52.456;13.620;2023-05-15T06:13:21;5.10;;;2.20;;
47966;SDS011;33733;52.456;13.620;2023-05-15T06:15:48;5.32;;;2.25;;
47966;SDS011;33733;52.456;13.620;2023-05-15T06:18:14;5.47;;;2.20;;
47966;SDS011;33733;52.456;13.620;2023-05-15T06:20:41;6.63;;;2.28;;
47966;SDS011;33733;52.456;13.620;2023-05-15T06:23:08;5.13;;;2.03;;
47966;SDS011;33733;52.456;13.620;2023-05-15T06:25:35;9.25;;;2.33;;
47966;SDS011;33733;52.456;13.620;2023-05-15T06:28:01;5.47;;;1.67;;
47966;SDS011;33733;52.456;13.620;2023-05-15T06:30:28;5.78;;;2.45;;
47966;SDS011;33733;52.456;13.620;2023-05-15T06:32:54;5.45;;;2.38;;
47966;SDS011;33733;52.456;13.620;2023-05-15T06:35:21;5.63;;;1.90;;
47966;SDS011;33733;52.456;13.620;2023-05-15T06:37:50;7.07;;;2.50;;
47966;SDS011;33733;52.456;13.620;2023-05-15T06:40:19;7.32;;;2.30;;
47966;SDS011;33733;52.456;13.620;2023-05-15T06:42:45;10.35;;;2.80;;
47966;SDS011;33733;52.456;13.620;2023-05-15T06:45:12;5.43;;;2.47;;
47966;SDS011;33733;52.456;13.620;2023-05-15T06:47:39;5.82;;;2.35;;
47966;SDS011;33733;52.456;13.620;2023-05-15T06:50:06;7.47;;;2.25;;
47966;SDS011;33733;52.456;13.620;2023-05-15T06:52:33;5.70;;;2.38;;
47966;SDS011;33733;52.456;13.620;2023-05-15T06:54:59;6.78;;;2.10;;
47966;SDS011;33733;52.456;13.620;2023-05-15T06:57:26;6.40;;;2.03;;
47966;SDS011;33733;52.456;13.620;2023-05-15T06:59:53;5.28;;;2.13;;
47966;SDS011;33733;52.456;13.620;2023-05-15T07:02:19;4.78;;;2.08;;
47966;SDS011;33733;52.456;13.620;2023-05-15T07:07:22;7.20;;;1.70;;
47966;SDS011;33733;52.456;13.620;2023-05-15T07:09:49;6.32;;;2.03;;
47966;SDS011;33733;52.456;13.620;2023-05-15T07:12:15;4.05;;;1.30;;
47966;SDS011;33733;52.456;13.620;2023-05-15T07:14:42;4.88;;;1.90;;
47966;SDS011;33733;52.456;13.620;2023-05-15T07:17:08;5.85;;;2.38;;
47966;SDS011;33733;52.456;13.620;2023-05-15T07:19:36;5.60;;;2.53;;
47966;SDS011;33733;52.456;13.620;2023-05-15T07:22:03;5.63;;;2.03;;
47966;SDS011;33733;52.456;13.620;2023-05-15T07:24:29;8.25;;;3.08;;
47966;SDS011;33733;52.456;13.620;2023-05-15T07:26:57;5.60;;;1.77;;
47966;SDS011;33733;52.456;13.620;2023-05-15T07:29:24;5.07;;;2.22;;
47966;SDS011;33733;52.456;13.620;2023-05-15T07:31:51;5.90;;;1.80;;
47966;SDS011;33733;52.456;13.620;2023-05-15T07:34:18;5.97;;;3.17;;
47966;SDS011;33733;52.456;13.620;2023-05-15T07:36:45;4.80;;;1.77;;
47966;SDS011;33733;52.456;13.620;2023-05-15T07:39:11;7.60;;;2.50;;
47966;SDS011;33733;52.456;13.620;2023-05-15T07:41:39;4.88;;;1.70;;
47966;SDS011;33733;52.456;13.620;2023-05-15T07:44:05;5.28;;;2.08;;
47966;SDS011;33733;52.456;13.620;2023-05-15T07:46:32;4.53;;;1.65;;
47966;SDS011;33733;52.456;13.620;2023-05-15T07:48:59;5.85;;;2.35;;
47966;SDS011;33733;52.456;13.620;2023-05-15T07:51:26;5.68;;;1.63;;
47966;SDS011;33733;52.456;13.620;2023-05-15T07:53:52;5.35;;;2.13;;
47966;SDS011;33733;52.456;13.620;2023-05-15T07:56:19;4.93;;;2.03;;
47966;SDS011;33733;52.456;13.620;2023-05-15T07:58:46;6.65;;;2.13;;
47966;SDS011;33733;52.456;13.620;2023-05-15T08:01:13;5.68;;;1.95;;
47966;SDS011;33733;52.456;13.620;2023-05-15T08:03:40;6.05;;;2.42;;
47966;SDS011;33733;52.456;13.620;2023-05-15T08:06:07;6.03;;;1.90;;
47966;SDS011;33733;52.456;13.620;2023-05-15T08:08:33;6.18;;;1.70;;
47966;SDS011;33733;52.456;13.620;2023-05-15T08:11:00;5.60;;;1.92;;
47966;SDS011;33733;52.456;13.620;2023-05-15T08:13:26;6.18;;;2.03;;
47966;SDS011;33733;52.456;13.620;2023-05-15T08:15:54;5.53;;;1.70;;
47966;SDS011;33733;52.456;13.620;2023-05-15T08:18:20;4.60;;;1.73;;
47966;SDS011;33733;52.456;13.620;2023-05-15T08:20:47;5.40;;;2.25;;
47966;SDS011;33733;52.456;13.620;2023-05-15T08:23:14;4.55;;;1.45;;
47966;SDS011;33733;52.456;13.620;2023-05-15T08:25:41;6.50;;;2.50;;
47966;SDS011;33733;52.456;13.620;2023-05-15T08:28:08;5.30;;;1.88;;
47966;SDS011;33733;52.456;13.620;2023-05-15T08:30:36;5.03;;;1.20;;
47966;SDS011;33733;52.456;13.620;2023-05-15T08:33:02;4.93;;;1.35;;
47966;SDS011;33733;52.456;13.620;2023-05-15T08:35:29;4.57;;;1.75;;
47966;SDS011;33733;52.456;13.620;2023-05-15T08:37:56;6.05;;;1.85;;
47966;SDS011;33733;52.456;13.620;2023-05-15T08:40:23;8.57;;;1.95;;
47966;SDS011;33733;52.456;13.620;2023-05-15T08:43:07;6.72;;;2.20;;
47966;SDS011;33733;52.456;13.620;2023-05-15T08:45:40;6.47;;;1.80;;
47966;SDS011;33733;52.456;13.620;2023-05-15T08:48:09;5.20;;;1.45;;
47966;SDS011;33733;52.456;13.620;2023-05-15T08:50:37;5.10;;;2.10;;
47966;SDS011;33733;52.456;13.620;2023-05-15T08:53:04;7.13;;;1.92;;
47966;SDS011;33733;52.456;13.620;2023-05-15T08:55:31;5.53;;;2.05;;
47966;SDS011;33733;52.456;13.620;2023-05-15T08:57:57;4.53;;;1.50;;
47966;SDS011;33733;52.456;13.620;2023-05-15T09:00:25;7.13;;;1.67;;
47966;SDS011;33733;52.456;13.620;2023-05-15T09:02:52;7.40;;;2.00;;
47966;SDS011;33733;52.456;13.620;2023-05-15T09:05:19;4.65;;;2.05;;
47966;SDS011;33733;52.456;13.620;2023-05-15T09:07:47;6.43;;;1.77;;
47966;SDS011;33733;52.456;13.620;2023-05-15T09:10:14;4.90;;;2.22;;
47966;SDS011;33733;52.456;13.620;2023-05-15T09:12:41;4.63;;;1.58;;
47966;SDS011;33733;52.456;13.620;2023-05-15T09:15:13;4.60;;;1.55;;
47966;SDS011;33733;52.456;13.620;2023-05-15T09:17:43;5.78;;;1.88;;
47966;SDS011;33733;52.456;13.620;2023-05-15T09:20:29;4.47;;;1.92;;
47966;SDS011;33733;52.456;13.620;2023-05-15T09:22:58;5.03;;;1.67;;
47966;SDS011;33733;52.456;13.620;2023-05-15T09:28:07;4.15;;;1.17;;
47966;SDS011;33733;52.456;13.620;2023-05-15T09:30:38;6.10;;;1.88;;
47966;SDS011;33733;52.456;13.620;2023-05-15T09:33:04;5.03;;;1.52;;
47966;SDS011;33733;52.456;13.620;2023-05-15T09:35:38;4.90;;;1.55;;
47966;SDS011;33733;52.456;13.620;2023-05-15T09:38:08;4.60;;;1.58;;
47966;SDS011;33733;52.456;13.620;2023-05-15T09:40:36;4.53;;;2.05;;
47966;SDS011;33733;52.456;13.620;2023-05-15T09:43:04;7.07;;;1.83;;
47966;SDS011;33733;52.456;13.620;2023-05-15T09:45:30;4.40;;;1.58;;
47966;SDS011;33733;52.456;13.620;2023-05-15T09:48:00;7.45;;;2.08;;
47966;SDS011;33733;52.456;13.620;2023-05-15T09:50:36;5.07;;;1.88;;
47966;SDS011;33733;52.456;13.620;2023-05-15T09:53:04;5.25;;;2.05;;
47966;SDS011;33733;52.456;13.620;2023-05-15T09:55:31;5.22;;;1.83;;
47966;SDS011;33733;52.456;13.620;2023-05-15T10:00:39;7.05;;;2.53;;
47966;SDS011;33733;52.456;13.620;2023-05-15T10:03:14;5.70;;;2.20;;
47966;SDS011;33733;52.456;13.620;2023-05-15T10:05:43;4.18;;;1.40;;
47966;SDS011;33733;52.456;13.620;2023-05-15T10:08:10;7.10;;;1.92;;
47966;SDS011;33733;52.456;13.620;2023-05-15T10:10:37;4.55;;;1.63;;
47966;SDS011;33733;52.456;13.620;2023-05-15T10:13:04;7.15;;;2.28;;
47966;SDS011;33733;52.456;13.620;2023-05-15T10:15:33;3.92;;;1.45;;
47966;SDS011;33733;52.456;13.620;2023-05-15T10:17:59;5.65;;;2.10;;
47966;SDS011;33733;52.456;13.620;2023-05-15T10:20:26;4.35;;;1.70;;
47966;SDS011;33733;52.456;13.620;2023-05-15T10:22:54;8.65;;;2.30;;
47966;SDS011;33733;52.456;13.620;2023-05-15T10:28:08;5.28;;;2.00;;
47966;SDS011;33733;52.456;13.620;2023-05-15T10:30:36;5.82;;;1.77;;
47966;SDS011;33733;52.456;13.620;2023-05-15T10:33:03;10.90;;;2.17;;
47966;SDS011;33733;52.456;13.620;2023-05-15T10:35:32;7.53;;;2.58;;
47966;SDS011;33733;52.456;13.620;2023-05-15T10:37:59;4.78;;;1.98;;
47966;SDS011;33733;52.456;13.620;2023-05-15T10:40:29;5.60;;;1.92;;
47966;SDS011;33733;52.456;13.620;2023-05-15T10:42:55;5.28;;;1.95;;
47966;SDS011;33733;52.456;13.620;2023-05-15T10:45:25;6.32;;;2.55;;
47966;SDS011;33733;52.456;13.620;2023-05-15T10:47:52;7.32;;;1.98;;
47966;SDS011;33733;52.456;13.620;2023-05-15T10:50:19;5.22;;;1.80;;
47966;SDS011;33733;52.456;13.620;2023-05-15T10:52:46;4.85;;;1.75;;
47966;SDS011;33733;52.456;13.620;2023-05-15T10:55:16;4.88;;;1.85;;
47966;SDS011;33733;52.456;13.620;2023-05-15T10:57:46;7.00;;;1.88;;
47966;SDS011;33733;52.456;13.620;2023-05-15T11:02:49;5.82;;;2.47;;
47966;SDS011;33733;52.456;13.620;2023-05-15T11:05:19;5.32;;;2.25;;
47966;SDS011;33733;52.456;13.620;2023-05-15T11:10:51;5.90;;;2.20;;
47966;SDS011;33733;52.456;13.620;2023-05-15T11:13:18;4.40;;;1.58;;
47966;SDS011;33733;52.456;13.620;2023-05-15T11:15:46;5.70;;;1.85;;
47966;SDS011;33733;52.456;13.620;2023-05-15T11:18:13;4.90;;;1.17;;
47966;SDS011;33733;52.456;13.620;2023-05-15T11:20:41;3.83;;;1.33;;
47966;SDS011;33733;52.456;13.620;2023-05-15T11:23:35;3.75;;;1.15;;
47966;SDS011;33733;52.456;13.620;2023-05-15T11:26:03;5.00;;;1.45;;
47966;SDS011;33733;52.456;13.620;2023-05-15T11:28:30;4.00;;;1.33;;
47966;SDS011;33733;52.456;13.620;2023-05-15T11:31:07;7.07;;;1.40;;
47966;SDS011;33733;52.456;13.620;2023-05-15T11:33:36;3.60;;;0.93;;
47966;SDS011;33733;52.456;13.620;2023-05-15T11:36:04;3.53;;;1.23;;
47966;SDS011;33733;52.456;13.620;2023-05-15T11:38:35;4.20;;;1.48;;
47966;SDS011;33733;52.456;13.620;2023-05-15T11:41:11;5.05;;;1.50;;
47966;SDS011;33733;52.456;13.620;2023-05-15T11:43:42;4.70;;;1.85;;
47966;SDS011;33733;52.456;13.620;2023-05-15T11:46:09;3.63;;;1.00;;
47966;SDS011;33733;52.456;13.620;2023-05-15T11:48:38;4.07;;;1.35;;
47966;SDS011;33733;52.456;13.620;2023-05-15T11:51:16;4.75;;;0.85;;
47966;SDS011;33733;52.456;13.620;2023-05-15T11:53:45;4.32;;;1.52;;
47966;SDS011;33733;52.456;13.620;2023-05-15T11:56:16;3.65;;;0.95;;
47966;SDS011;33733;52.456;13.620;2023-05-15T11:58:43;3.38;;;1.02;;
47966;SDS011;33733;52.456;13.620;2023-05-15T12:01:13;3.92;;;1.10;;
47966;SDS011;33733;52.456;13.620;2023-05-15T12:03:40;4.35;;;1.10;;
47966;SDS011;33733;52.456;13.620;2023-05-15T12:06:07;2.97;;;0.88;;
47966;SDS011;33733;52.456;13.620;2023-05-15T12:08:35;2.33;;;0.70;;
47966;SDS011;33733;52.456;13.620;2023-05-15T12:11:07;2.78;;;0.60;;
47966;SDS011;33733;52.456;13.620;2023-05-15T12:13:34;2.90;;;0.93;;
47966;SDS011;33733;52.456;13.620;2023-05-15T12:16:01;3.22;;;1.17;;
47966;SDS011;33733;52.456;13.620;2023-05-15T12:18:31;2.65;;;0.60;;
47966;SDS011;33733;52.456;13.620;2023-05-15T12:20:59;4.05;;;1.45;;
47966;SDS011;33733;52.456;13.620;2023-05-15T12:23:26;2.78;;;0.98;;
47966;SDS011;33733;52.456;13.620;2023-05-15T12:25:58;5.25;;;1.02;;
47966;SDS011;33733;52.456;13.620;2023-05-15T12:28:26;2.85;;;0.73;;
47966;SDS011;33733;52.456;13.620;2023-05-15T12:30:53;4.78;;;0.70;;
47966;SDS011;33733;52.456;13.620;2023-05-15T12:33:20;4.63;;;1.23;;
47966;SDS011;33733;52.456;13.620;2023-05-15T12:35:52;3.15;;;0.68;;
47966;SDS011;33733;52.456;13.620;2023-05-15T12:38:21;2.28;;;0.77;;
47966;SDS011;33733;52.456;13.620;2023-05-15T12:40:50;2.33;;;0.60;;
47966;SDS011;33733;52.456;13.620;2023-05-15T12:43:18;2.40;;;0.60;;
47966;SDS011;33733;52.456;13.620;2023-05-15T12:45:46;2.35;;;0.93;;
47966;SDS011;33733;52.456;13.620;2023-05-15T12:48:18;2.08;;;0.65;;
47966;SDS011;33733;52.456;13.620;2023-05-15T12:50:45;2.85;;;0.95;;
47966;SDS011;33733;52.456;13.620;2023-05-15T12:53:12;3.60;;;0.90;;
47966;SDS011;33733;52.456;13.620;2023-05-15T12:55:41;3.05;;;1.00;;
47966;SDS011;33733;52.456;13.620;2023-05-15T12:58:11;2.80;;;0.73;;
47966;SDS011;33733;52.456;13.620;2023-05-15T13:00:39;2.78;;;0.57;;
47966;SDS011;33733;52.456;13.620;2023-05-15T13:03:07;3.05;;;0.70;;
47966;SDS011;33733;52.456;13.620;2023-05-15T13:05:35;3.95;;;0.90;;
47966;SDS011;33733;52.456;13.620;2023-05-15T13:08:03;3.10;;;0.70;;
47966;SDS011;33733;52.456;13.620;2023-05-15T13:10:31;3.30;;;0.55;;
47966;SDS011;33733;52.456;13.620;2023-05-15T13:12:59;2.25;;;0.65;;
47966;SDS011;33733;52.456;13.620;2023-05-15T13:15:36;2.60;;;0.77;;
47966;SDS011;33733;52.456;13.620;2023-05-15T13:18:11;2.70;;;1.15;;
47966;SDS011;33733;52.456;13.620;2023-05-15T13:23:16;2.70;;;0.90;;
47966;SDS011;33733;52.456;13.620;2023-05-15T13:25:44;2.78;;;0.95;;
47966;SDS011;33733;52.456;13.620;2023-05-15T13:28:11;3.40;;;0.80;;
47966;SDS011;33733;52.456;13.620;2023-05-15T13:30:38;2.53;;;0.77;;
47966;SDS011;33733;52.456;13.620;2023-05-15T13:33:07;2.33;;;0.60;;
47966;SDS011;33733;52.456;13.620;2023-05-15T13:35:35;3.50;;;0.75;;
47966;SDS011;33733;52.456;13.620;2023-05-15T13:38:02;2.60;;;0.80;;
47966;SDS011;33733;52.456;13.620;2023-05-15T13:40:30;3.33;;;0.80;;
47966;SDS011;33733;52.456;13.620;2023-05-15T13:43:06;4.13;;;0.60;;
47966;SDS011;33733;52.456;13.620;2023-05-15T13:45:32;2.47;;;0.60;;
47966;SDS011;33733;52.456;13.620;2023-05-15T13:47:59;5.07;;;0.80;;
47966;SDS011;33733;52.456;13.620;2023-05-15T13:50:26;2.83;;;0.55;;
47966;SDS011;33733;52.456;13.620;2023-05-15T13:52:53;2.05;;;0.60;;
47966;SDS011;33733;52.456;13.620;2023-05-15T13:55:20;2.38;;;0.55;;
47966;SDS011;33733;52.456;13.620;2023-05-15T13:57:48;2.03;;;0.47;;
47966;SDS011;33733;52.456;13.620;2023-05-15T14:00:15;1.92;;;0.45;;
47966;SDS011;33733;52.456;13.620;2023-05-15T14:02:42;2.67;;;0.47;;
47966;SDS011;33733;52.456;13.620;2023-05-15T14:05:10;1.83;;;0.30;;
47966;SDS011;33733;52.456;13.620;2023-05-15T14:07:39;3.38;;;0.73;;
47966;SDS011;33733;52.456;13.620;2023-05-15T14:10:06;2.05;;;0.57;;
47966;SDS011;33733;52.456;13.620;2023-05-15T14:12:33;1.85;;;0.40;;
47966;SDS011;33733;52.456;13.620;2023-05-15T14:15:01;2.03;;;0.60;;
47966;SDS011;33733;52.456;13.620;2023-05-15T14:17:27;4.55;;;0.50;;
47966;SDS011;33733;52.456;13.620;2023-05-15T14:19:54;2.28;;;0.68;;
47966;SDS011;33733;52.456;13.620;2023-05-15T14:22:21;3.30;;;0.55;;
47966;SDS011;33733;52.456;13.620;2023-05-15T14:24:50;2.42;;;0.60;;
47966;SDS011;33733;52.456;13.620;2023-05-15T14:27:19;2.88;;;0.57;;
47966;SDS011;33733;52.456;13.620;2023-05-15T14:29:46;2.97;;;0.73;;
47966;SDS011;33733;52.456;13.620;2023-05-15T14:32:14;2.20;;;0.60;;
47966;SDS011;33733;52.456;13.620;2023-05-15T14:34:41;2.97;;;0.55;;
47966;SDS011;33733;52.456;13.620;2023-05-15T14:37:08;2.85;;;0.73;;
47966;SDS011;33733;52.456;13.620;2023-05-15T14:39:34;2.83;;;0.50;;
47966;SDS011;33733;52.456;13.620;2023-05-15T14:42:01;2.70;;;0.70;;
47966;SDS011;33733;52.456;13.620;2023-05-15T14:44:27;2.35;;;0.55;;
47966;SDS011;33733;52.456;13.620;2023-05-15T14:47:04;3.13;;;0.60;;
47966;SDS011;33733;52.456;13.620;2023-05-15T14:49:34;2.92;;;1.02;;
47966;SDS011;33733;52.456;13.620;2023-05-15T14:52:02;2.80;;;0.70;;
47966;SDS011;33733;52.456;13.620;2023-05-15T14:54:29;3.17;;;0.98;;
47966;SDS011;33733;52.456;13.620;2023-05-15T14:56:56;3.38;;;0.80;;
47966;SDS011;33733;52.456;13.620;2023-05-15T14:59:24;2.72;;;0.80;;
47966;SDS011;33733;52.456;13.620;2023-05-15T15:01:52;3.20;;;0.93;;
47966;SDS011;33733;52.456;13.620;2023-05-15T15:04:18;2.20;;;0.70;;
47966;SDS011;33733;52.456;13.620;2023-05-15T15:06:48;2.90;;;0.70;;
47966;SDS011;33733;52.456;13.620;2023-05-15T15:09:14;2.88;;;0.80;;
47966;SDS011;33733;52.456;13.620;2023-05-15T15:11:43;2.95;;;0.88;;